Wales Township, Michigan
Current Conditions -  °F | °C
As of 2:17 PM on Thursday 18 Dec 2014 (Local Time) from KPHN Reporting Station
Overcast Overcast  
Wind Chill: 24°   Ceiling: 1400
Heat Index: 30°   Visibility: 10mi
Dew Point: 27°   Wind: 6mph
Humidity: 86%   Direction: 290°WNW
Pressure: 30.15"   Gusts: NA
Location:  42.9446°N, 82.6827°W
Report Text: KPHN 181917Z AUTO 29005KT 10SM OVC014 M01/M03 A3015 RMK AO2
Loading
Personal Weather Stations






























Interactive Weather Map New forecast layout! Learn more

10-Day Weather Forecast

Advertisements
Track Severe Weather on mobile